Time;durP1;ratioP1;P1;durP2;ratioP2;P2;SDS_P1;SDS_P2;PMS_P1;PMS_P2;Temp;Humidity;BMP_temperature;BMP_pressure;BME280_temperature;BME280_humidity;BME280_pressure;Samples;Min_cycle;Max_cycle;Signal;HPM_P1;HPM_P2
2022/06/04 00:00:08;;;;;;;;;;;;;;;21.39;47.99;101709.16;7280960;19;153366;-57
2022/06/04 00:02:42;;;;;;;;;;;;;;;21.36;48.10;101718.16;7288775;19;152080;-59
2022/06/04 00:05:10;;;;;;;;;;;;;;;21.36;47.78;101724.63;7284722;19;152843;-57
2022/06/04 00:07:37;;;;;;;;;;;;;;;21.35;48.14;101728.56;7285556;19;154260;-57
2022/06/04 00:15:41;;;;;;;;;;;;;;;21.33;47.91;101705.53;7287112;19;151952;-58
2022/06/04 00:18:08;;;;;;;;;;;;;;;21.32;48.13;101711.44;7287615;19;153137;-59
2022/06/04 00:20:35;;;;;;;;;;;;;;;21.32;47.72;101711.44;7283418;19;153233;-59
2022/06/04 00:23:04;;;;;;;;;;;;;;;21.32;47.79;101723.53;7281920;19;152526;-59
2022/06/04 00:25:31;;;;;;;;;;;;;;;21.32;47.82;101726.34;7281824;19;153758;-59
2022/06/04 00:28:02;;;;;;;;;;;;;;;21.30;47.79;101728.63;7285149;19;154346;-59
2022/06/04 00:30:28;;;;;;;;;;;;;;;21.29;47.82;101729.75;7283981;19;152087;-59
2022/06/04 00:32:55;;;;;;;;;;;;;;;21.30;48.17;101742.69;7283426;19;153276;-58
2022/06/04 00:35:22;;;;;;;;;;;;;;;21.28;48.13;101742.97;7286151;19;153944;-58
2022/06/04 00:38:01;;;;;;;;;;;;;;;21.29;48.00;101746.63;7284353;19;152679;-59
2022/06/04 00:40:46;;;;;;;;;;;;;;;21.28;48.21;101737.34;7283629;19;154282;-58
2022/06/04 00:43:13;;;;;;;;;;;;;;;21.28;47.87;101740.16;7281487;19;152105;-58
2022/06/04 00:45:52;;;;;;;;;;;;;;;21.28;48.00;101750.56;7283803;19;152870;-58
2022/06/04 00:48:20;;;;;;;;;;;;;;;21.28;48.17;101740.16;7282058;19;154306;-59
2022/06/04 00:50:47;;;;;;;;;;;;;;;21.28;47.73;101753.38;7281108;19;152200;-57
2022/06/04 00:53:16;;;;;;;;;;;;;;;21.28;48.14;101750.56;7284505;19;153466;-57
2022/06/04 00:55:46;;;;;;;;;;;;;;;21.28;47.99;101750.56;7289504;19;155106;-57
2022/06/04 00:58:19;;;;;;;;;;;;;;;21.26;47.99;101744.38;7282831;19;154317;-59
2022/06/04 01:00:54;;;;;;;;;;;;;;;21.26;47.79;101747.19;7280490;19;154409;-58
2022/06/04 01:03:42;;;;;;;;;;;;;;;21.30;47.89;101735.06;7281411;19;152221;-58
2022/06/04 01:06:28;;;;;;;;;;;;;;;21.29;47.83;101730.59;7283582;19;153565;-59
2022/06/04 01:09:07;;;;;;;;;;;;;;;21.27;47.86;101737.63;7283071;19;153288;-58
2022/06/04 01:11:34;;;;;;;;;;;;;;;21.27;47.97;101734.81;7280404;19;152423;-57
2022/06/04 01:14:04;;;;;;;;;;;;;;;21.27;48.07;101737.63;7280447;19;153488;-58
2022/06/04 01:16:50;;;;;;;;;;;;;;;21.26;48.50;101742.41;7280798;19;153432;-58
2022/06/04 01:19:17;;;;;;;;;;;;;;;21.26;48.43;101755.63;7290246;19;151739;-58
2022/06/04 01:22:02;;;;;;;;;;;;;;;21.24;48.61;101738.22;7281489;19;153192;-59
2022/06/04 01:24:29;;;;;;;;;;;;;;;21.24;48.77;101730.66;7283430;19;152066;-59
2022/06/04 01:26:59;;;;;;;;;;;;;;;21.24;48.83;101736.28;7280379;19;152612;-59
2022/06/04 01:29:33;;;;;;;;;;;;;;;21.24;48.82;101738.22;7283720;19;153269;-57
2022/06/04 01:32:06;;;;;;;;;;;;;;;21.24;48.78;101733.47;7283314;19;152497;-59
2022/06/04 01:34:37;;;;;;;;;;;;;;;21.34;48.97;101732.53;7283654;19;152948;-57
2022/06/04 01:37:08;;;;;;;;;;;;;;;21.32;48.85;101743.22;7278603;19;153277;-58
2022/06/04 01:42:24;;;;;;;;;;;;;;;21.29;49.07;101735.38;7289833;19;152587;-59
2022/06/04 01:44:52;;;;;;;;;;;;;;;21.30;49.15;101739.88;7284185;19;152895;-58
2022/06/04 01:47:33;;;;;;;;;;;;;;;21.29;48.93;101741.00;7283731;19;153505;-59
2022/06/04 01:50:02;;;;;;;;;;;;;;;21.30;49.15;101743.50;7283693;19;154756;-57
2022/06/04 01:52:30;;;;;;;;;;;;;;;21.31;49.53;101752.78;7283492;19;152268;-58
2022/06/04 01:55:02;;;;;;;;;;;;;;;21.29;49.19;101755.91;7282806;19;153474;-57
2022/06/04 01:57:50;;;;;;;;;;;;;;;21.35;49.41;101764.31;7280690;19;154110;-58
2022/06/04 02:00:23;;;;;;;;;;;;;;;21.33;49.81;101770.19;7283478;19;151998;-58
2022/06/04 02:02:54;;;;;;;;;;;;;;;21.33;49.57;101766.56;7283223;19;153360;-59
2022/06/04 02:05:23;;;;;;;;;;;;;;;21.35;49.74;101767.09;7292436;19;154071;-57
2022/06/04 02:07:52;;;;;;;;;;;;;;;21.33;50.03;101767.38;7283589;19;153232;-58
2022/06/04 02:10:25;;;;;;;;;;;;;;;21.33;49.90;101772.16;7283579;19;154332;-59
2022/06/04 02:12:53;;;;;;;;;;;;;;;21.33;50.06;101777.78;7282581;19;151772;-58
2022/06/04 02:15:22;;;;;;;;;;;;;;;21.32;50.18;101776.94;7284008;19;152660;-59
2022/06/04 02:17:54;;;;;;;;;;;;;;;21.33;50.21;101774.97;7284478;19;153257;-58
2022/06/04 02:20:25;;;;;;;;;;;;;;;21.33;50.17;101774.97;7284028;19;152531;-59
2022/06/04 02:22:51;;;;;;;;;;;;;;;21.33;50.34;101775.81;7282645;19;153345;-58
2022/06/04 02:25:18;;;;;;;;;;;;;;;21.34;50.29;101782.28;7282538;19;153928;-58
2022/06/04 02:27:45;;;;;;;;;;;;;;;21.33;50.65;101781.44;7291577;19;151646;-59
2022/06/04 02:30:12;;;;;;;;;;;;;;;21.33;50.86;101784.25;7283080;19;153112;-58
2022/06/04 02:32:46;;;;;;;;;;;;;;;21.34;50.73;101787.91;7281548;19;151983;-59
2022/06/04 02:35:19;;;;;;;;;;;;;;;21.34;51.00;101791.56;7283143;19;153471;-58
2022/06/04 02:38:02;;;;;;;;;;;;;;;21.35;50.68;101783.97;7274683;19;154520;-60
2022/06/04 02:40:33;;;;;;;;;;;;;;;21.33;50.91;101784.25;7281094;19;151735;-60
2022/06/04 02:43:17;;;;;;;;;;;;;;;21.34;50.71;101783.13;7281698;19;153345;-58
2022/06/04 02:46:07;;;;;;;;;;;;;;;21.35;51.07;101781.16;7282755;19;153768;-59
2022/06/04 02:48:38;;;;;;;;;;;;;;;21.35;51.03;101772.72;7279807;19;151985;-59
2022/06/04 02:51:13;;;;;;;;;;;;;;;21.35;51.00;101762.28;7290355;19;152664;-60
2022/06/04 02:53:41;;;;;;;;;;;;;;;21.38;50.96;101758.06;7278327;19;151945;-58
2022/06/04 02:56:16;;;;;;;;;;;;;;;21.36;51.52;101751.91;7279427;19;154571;-59
2022/06/04 02:58:47;;;;;;;;;;;;;;;21.35;51.44;101751.06;7281762;19;153972;-58
2022/06/04 03:01:14;;;;;;;;;;;;;;;21.35;51.54;101748.25;7283680;19;151857;-58
2022/06/04 03:03:41;;;;;;;;;;;;;;;21.34;51.52;101755.03;7281029;19;153110;-58
2022/06/04 03:06:19;;;;;;;;;;;;;;;21.35;51.69;101753.06;7282522;19;153812;-58
2022/06/04 03:08:46;;;;;;;;;;;;;;;21.35;51.50;101745.44;7282987;19;151654;-58
2022/06/04 03:11:13;;;;;;;;;;;;;;;21.36;51.67;101749.94;7289506;19;153598;-58
2022/06/04 03:13:40;;;;;;;;;;;;;;;21.39;51.71;101756.94;7280377;19;151785;-59
2022/06/04 03:16:08;;;;;;;;;;;;;;;21.36;51.81;101763.97;7283475;19;152941;-59
2022/06/04 03:18:35;;;;;;;;;;;;;;;21.36;52.13;101760.31;7280690;19;153973;-57
2022/06/04 03:21:01;;;;;;;;;;;;;;;21.36;51.77;101763.13;7282758;19;151923;-57
2022/06/04 03:23:28;;;;;;;;;;;;;;;21.35;52.49;101753.06;7281747;19;155760;-58
2022/06/04 03:25:55;;;;;;;;;;;;;;;21.34;51.99;101757.84;7281734;19;154440;-59
2022/06/04 03:28:21;;;;;;;;;;;;;;;21.36;52.21;101754.69;7282414;19;152138;-58
2022/06/04 03:30:48;;;;;;;;;;;;;;;21.35;52.11;101755.88;7280234;19;153593;-58
2022/06/04 03:33:15;;;;;;;;;;;;;;;21.34;52.30;101765.44;7287853;19;153881;-59
2022/06/04 03:35:42;;;;;;;;;;;;;;;21.35;52.39;101762.28;7282200;19;153615;-59
2022/06/04 03:38:09;;;;;;;;;;;;;;;21.35;52.45;101759.47;7275790;19;154212;-57
2022/06/04 03:40:36;;;;;;;;;;;;;;;21.35;52.65;101758.69;7278577;19;152476;-58
2022/06/04 03:43:03;;;;;;;;;;;;;;;21.35;52.73;101755.88;7281617;19;153215;-58
2022/06/04 03:45:30;;;;;;;;;;;;;;;21.36;52.22;101751.91;7279785;19;153960;-60
2022/06/04 03:47:56;;;;;;;;;;;;;;;21.35;52.44;101753.06;7281805;19;152341;-58
2022/06/04 03:50:25;;;;;;;;;;;;;;;21.35;52.34;101747.44;7282013;19;153727;-60
2022/06/04 03:52:52;;;;;;;;;;;;;;;21.36;52.90;101737.84;7277937;19;153971;-58
2022/06/04 03:55:19;;;;;;;;;;;;;;;21.35;52.90;101748.25;7288905;19;151800;-59
2022/06/04 03:57:50;;;;;;;;;;;;;;;21.34;52.55;101749.41;7278943;19;153136;-59
2022/06/04 04:00:27;;;;;;;;;;;;;;;21.35;52.95;101756.69;7281388;19;152037;-59
2022/06/04 04:02:55;;;;;;;;;;;;;;;21.35;52.75;101748.25;7280615;19;152658;-56
2022/06/04 04:05:25;;;;;;;;;;;;;;;21.34;52.84;101746.59;7280091;19;153313;-58
2022/06/04 04:07:52;;;;;;;;;;;;;;;21.35;52.64;101747.44;7279539;19;151750;-58
2022/06/04 04:10:18;;;;;;;;;;;;;;;21.36;53.06;101735.03;7280427;19;153688;-58
2022/06/04 04:12:45;;;;;;;;;;;;;;;21.36;53.10;101735.88;7278252;19;153304;-59
2022/06/04 04:15:12;;;;;;;;;;;;;;;21.36;52.91;101747.13;7280203;19;151871;-58
2022/06/04 04:17:39;;;;;;;;;;;;;;;21.36;52.89;101737.84;7285302;19;153382;-58
2022/06/04 04:20:09;;;;;;;;;;;;;;;21.35;53.14;101742.63;7280924;19;152291;-57
2022/06/04 04:22:36;;;;;;;;;;;;;;;21.36;53.21;101743.47;7281326;19;153375;-58
2022/06/04 04:25:04;;;;;;;;;;;;;;;21.34;53.22;101749.41;7279215;19;153350;-59
2022/06/04 04:27:31;;;;;;;;;;;;;;;21.39;53.21;101751.31;7280357;19;151751;-58
2022/06/04 04:29:57;;;;;;;;;;;;;;;21.38;53.33;101746.84;7280361;19;153396;-59
2022/06/04 04:32:24;;;;;;;;;;;;;;;21.37;53.09;101747.97;7278936;19;153208;-59
2022/06/04 04:34:51;;;;;;;;;;;;;;;21.36;52.80;101749.09;7278809;19;151790;-58
2022/06/04 04:37:17;;;;;;;;;;;;;;;21.39;53.34;101748.50;7280221;19;152778;-58
2022/06/04 04:39:44;;;;;;;;;;;;;;;21.37;53.16;101751.63;7281904;19;153437;-59
2022/06/04 04:42:11;;;;;;;;;;;;;;;21.37;53.27;101751.63;7279844;19;152631;-59
2022/06/04 04:44:38;;;;;;;;;;;;;;;21.36;53.46;101758.34;7278539;19;153720;-58
2022/06/04 04:47:04;;;;;;;;;;;;;;;21.39;53.29;101746.53;7283315;19;152151;-59
2022/06/04 04:49:31;;;;;;;;;;;;;;;21.43;52.88;101753.25;7286725;19;153152;-59
2022/06/04 04:51:59;;;;;;;;;;;;;;;21.40;52.93;101765.06;7285244;19;153982;-60
2022/06/04 04:54:26;;;;;;;;;;;;;;;21.40;53.12;101767.88;7283168;19;153658;-59
2022/06/04 04:56:53;;;;;;;;;;;;;;;21.39;53.15;101768.19;7287038;19;152833;-58
2022/06/04 04:59:20;;;;;;;;;;;;;;;21.36;52.91;101763.13;7284580;19;153263;-58
2022/06/04 05:01:47;;;;;;;;;;;;;;;21.37;53.31;101770.44;7293005;19;151993;-57
2022/06/04 05:04:13;;;;;;;;;;;;;;;21.35;53.20;101770.72;7283728;19;154017;-58
2022/06/04 05:06:40;;;;;;;;;;;;;;;21.36;53.21;101772.41;7286756;19;152044;-58
2022/06/04 05:09:08;;;;;;;;;;;;;;;21.36;53.44;101782.81;7285312;19;152768;-59
2022/06/04 05:11:35;;;;;;;;;;;;;;;21.39;53.31;101777.47;7284900;19;153001;-57
2022/06/04 05:14:02;;;;;;;;;;;;;;;21.38;53.33;101772.13;7282663;19;151804;-58
2022/06/04 05:16:34;;;;;;;;;;;;;;;21.38;52.86;101772.13;7284423;19;153615;-59
2022/06/04 05:19:03;;;;;;;;;;;;;;;21.37;53.24;101768.47;7284826;19;153285;-57
2022/06/04 05:21:38;;;;;;;;;;;;;;;21.35;52.80;101755.88;7292514;19;152244;-57
2022/06/04 05:24:06;;;;;;;;;;;;;;;21.35;53.21;101748.25;7284038;19;153642;-58
2022/06/04 05:26:33;;;;;;;;;;;;;;;21.35;52.92;101748.25;7285284;19;152136;-59
2022/06/04 05:28:59;;;;;;;;;;;;;;;21.34;53.02;101752.22;7285561;19;153488;-58
2022/06/04 05:31:26;;;;;;;;;;;;;;;21.36;53.01;101754.69;7284736;19;153230;-59
2022/06/04 05:33:53;;;;;;;;;;;;;;;21.35;53.16;101753.88;7282686;19;153135;-57
2022/06/04 05:36:19;;;;;;;;;;;;;;;21.35;52.89;101758.69;7286405;19;152633;-59
2022/06/04 05:38:54;;;;;;;;;;;;;;;21.35;53.00;101767.09;7282772;19;153327;-59
2022/06/04 05:41:21;;;;;;;;;;;;;;;21.34;53.25;101774.69;7281288;19;152351;-59
2022/06/04 05:43:48;;;;;;;;;;;;;;;21.33;53.19;101773.00;7290271;19;153190;-58
2022/06/04 05:46:15;;;;;;;;;;;;;;;21.33;53.13;101770.19;7283858;19;152009;-59
2022/06/04 05:48:43;;;;;;;;;;;;;;;21.34;53.30;101782.28;7284262;19;153039;-58
2022/06/04 05:51:11;;;;;;;;;;;;;;;21.33;53.55;101772.16;7282882;19;153697;-58
2022/06/04 05:53:38;;;;;;;;;;;;;;;21.33;53.15;101766.56;7284650;19;152259;-58
2022/06/04 05:56:15;;;;;;;;;;;;;;;21.33;53.87;101773.00;7283973;19;153574;-58
2022/06/04 05:58:42;;;;;;;;;;;;;;;21.33;53.57;101764.59;7281239;19;155832;-58
2022/06/04 06:01:09;;;;;;;;;;;;;;;21.32;53.36;101757.28;7285383;19;151997;-59
2022/06/04 06:03:36;;;;;;;;;;;;;;;21.32;53.61;101757.28;7282748;19;153460;-58
2022/06/04 06:06:02;;;;;;;;;;;;;;;21.33;53.88;101761.78;7291542;19;153578;-58
2022/06/04 06:08:52;;;;;;;;;;;;;;;21.33;53.59;101774.97;7283314;19;155507;-58
2022/06/04 06:11:19;;;;;;;;;;;;;;;21.34;53.90;101783.13;7284308;19;152508;-59
2022/06/04 06:13:47;;;;;;;;;;;;;;;21.35;53.70;101783.97;7282643;19;151816;-58
2022/06/04 06:16:14;;;;;;;;;;;;;;;21.34;53.79;101785.09;7284380;19;153419;-58
2022/06/04 06:18:42;;;;;;;;;;;;;;;21.33;53.79;101798.31;7283007;19;154465;-58
2022/06/04 06:21:09;;;;;;;;;;;;;;;21.33;53.69;101792.69;7285107;19;151798;-58
2022/06/04 06:23:37;;;;;;;;;;;;;;;21.33;53.71;101794.66;7283433;19;152699;-59
2022/06/04 06:26:04;;;;;;;;;;;;;;;21.33;53.51;101803.09;7282259;19;153919;-59
2022/06/04 06:28:32;;;;;;;;;;;;;;;21.32;53.47;101804.22;7290671;19;152000;-58
2022/06/04 06:30:59;;;;;;;;;;;;;;;21.32;53.88;101813.50;7283717;19;153368;-59
2022/06/04 06:33:25;;;;;;;;;;;;;;;21.31;53.93;101820.25;7282038;19;152874;-59
2022/06/04 06:35:56;;;;;;;;;;;;;;;21.32;53.69;101819.13;7284675;19;153105;-60
2022/06/04 06:38:23;;;;;;;;;;;;;;;21.33;53.52;101825.59;7281501;19;154254;-58
2022/06/04 06:40:51;;;;;;;;;;;;;;;21.32;53.73;101818.28;7278855;19;152680;-59
2022/06/04 06:43:18;;;;;;;;;;;;;;;21.31;53.91;101828.69;7280049;19;153795;-59
2022/06/04 06:45:45;;;;;;;;;;;;;;;21.30;53.99;101827.84;7282211;19;153776;-58
2022/06/04 06:48:12;;;;;;;;;;;;;;;21.30;53.83;101832.63;7283214;19;151777;-59
2022/06/04 06:50:39;;;;;;;;;;;;;;;21.30;53.55;101846.69;7288296;19;153356;-58
2022/06/04 06:53:06;;;;;;;;;;;;;;;21.29;53.51;101857.09;7284740;19;152270;-58
2022/06/04 06:55:32;;;;;;;;;;;;;;;21.29;53.82;101864.69;7282729;19;152648;-58
2022/06/04 06:58:06;;;;;;;;;;;;;;;21.30;53.73;101880.44;7281688;19;154557;-59
2022/06/04 07:00:35;;;;;;;;;;;;;;;21.30;53.82;101883.25;7283463;19;152204;-58
2022/06/04 07:03:02;;;;;;;;;;;;;;;21.29;54.17;101882.41;7283766;19;153282;-59
2022/06/04 07:05:28;;;;;;;;;;;;;;;21.29;54.22;101888.03;7282407;19;154123;-58
2022/06/04 07:07:55;;;;;;;;;;;;;;;21.29;53.87;101892.78;7281174;19;152542;-58
2022/06/04 07:10:22;;;;;;;;;;;;;;;21.29;53.97;101904.03;7282349;19;153399;-57
2022/06/04 07:12:49;;;;;;;;;;;;;;;21.29;54.44;101906.84;7287499;19;151972;-59
2022/06/04 07:15:21;;;;;;;;;;;;;;;21.28;54.14;101905.16;7276772;19;153346;-59
2022/06/04 07:17:48;;;;;;;;;;;;;;;21.29;54.38;101895.59;7281531;19;153872;-58
2022/06/04 07:20:15;;;;;;;;;;;;;;;21.26;54.42;101891.38;7281998;19;151941;-58
2022/06/04 07:22:42;;;;;;;;;;;;;;;21.27;54.48;101893.06;7283483;19;153404;-57
2022/06/04 07:25:09;;;;;;;;;;;;;;;21.28;54.66;101885.50;7280376;19;154047;-58
2022/06/04 07:27:35;;;;;;;;;;;;;;;21.29;54.77;101875.94;7282812;19;155693;-58
2022/06/04 07:30:03;;;;;;;;;;;;;;;21.28;54.83;101879.88;7282043;19;153783;-58
2022/06/04 07:32:29;;;;;;;;;;;;;;;21.27;54.87;101883.81;7287599;19;153976;-58
2022/06/04 07:34:56;;;;;;;;;;;;;;;21.28;54.97;101871.44;7279897;19;152201;-57
2022/06/04 07:37:23;;;;;;;;;;;;;;;21.27;55.04;101870.59;7280272;19;153401;-57
2022/06/04 07:39:50;;;;;;;;;;;;;;;21.27;54.94;101867.78;7281647;19;152662;-59
2022/06/04 07:42:17;;;;;;;;;;;;;;;21.28;54.92;101865.81;7276717;19;153795;-57
2022/06/04 07:44:44;;;;;;;;;;;;;;;21.28;55.00;101858.22;7278169;19;153960;-57
2022/06/04 07:47:12;;;;;;;;;;;;;;;21.34;55.42;101850.59;7282154;19;154522;-59
2022/06/04 07:49:39;;;;;;;;;;;;;;;21.36;55.40;101845.50;7282576;19;152973;-59
2022/06/04 07:52:05;;;;;;;;;;;;;;;21.41;55.35;101845.47;7280070;19;153553;-59
2022/06/04 07:54:34;;;;;;;;;;;;;;;21.45;55.71;101840.94;7287378;19;152416;-59
2022/06/04 07:57:01;;;;;;;;;;;;;;;21.51;56.05;101845.41;7281282;19;154147;-59
2022/06/04 07:59:28;;;;;;;;;;;;;;;21.57;56.48;101844.25;7281748;19;152168;-58
2022/06/04 08:01:55;;;;;;;;;;;;;;;21.64;56.21;101850.34;7279865;19;153570;-59
2022/06/04 08:04:22;;;;;;;;;;;;;;;21.72;56.46;101851.69;7277725;19;153940;-59
2022/06/04 08:06:49;;;;;;;;;;;;;;;21.78;56.54;101860.94;7281261;19;152333;-57
2022/06/04 08:09:16;;;;;;;;;;;;;;;21.86;56.54;101855.50;7281080;19;153542;-59
2022/06/04 08:11:42;;;;;;;;;;;;;;;21.95;56.57;101856.56;7279361;19;152694;-57
2022/06/04 08:14:21;;;;;;;;;;;;;;;22.02;55.87;101861.88;7279371;19;152275;-58
2022/06/04 08:16:53;;;;;;;;;;;;;;;22.07;56.03;101867.44;7288239;19;152922;-58
2022/06/04 08:19:20;;;;;;;;;;;;;;;22.11;56.38;101865.72;7281986;19;152241;-58
2022/06/04 08:21:47;;;;;;;;;;;;;;;22.16;55.87;101865.66;7283553;19;153221;-58
2022/06/04 08:24:15;;;;;;;;;;;;;;;22.21;55.37;101847.88;7285529;19;153826;-58
2022/06/04 08:26:43;;;;;;;;;;;;;;;22.25;55.42;101847.00;7286455;19;153426;-58
2022/06/04 08:29:10;;;;;;;;;;;;;;;22.32;54.66;101843.81;7287350;19;153920;-59
2022/06/04 08:31:37;;;;;;;;;;;;;;;22.34;55.19;101836.75;7283708;19;153941;-59
2022/06/04 08:34:04;;;;;;;;;;;;;;;22.37;54.74;101835.31;7285055;19;152099;-59
2022/06/04 08:36:38;;;;;;;;;;;;;;;22.43;54.17;101839.75;7288068;19;153433;-59
2022/06/04 08:39:30;;;;;;;;;;;;;;;22.44;54.39;101836.59;7293316;19;152210;-59
2022/06/04 08:42:01;;;;;;;;;;;;;;;22.46;54.07;101839.97;7285854;19;153027;-58
2022/06/04 08:44:33;;;;;;;;;;;;;;;22.50;53.65;101843.03;7281415;19;154508;-59
2022/06/04 08:47:19;;;;;;;;;;;;;;;22.52;53.62;101852.03;7286307;19;152120;-60
2022/06/04 08:49:56;;;;;;;;;;;;;;;22.56;53.53;101834.22;7284813;19;153428;-57
2022/06/04 08:52:43;;;;;;;;;;;;;;;22.52;52.98;101835.97;7284226;19;153359;-57
2022/06/04 08:58:14;;;;;;;;;;;;;;;22.48;52.13;101842.50;7286195;19;153492;-58
2022/06/04 09:00:44;;;;;;;;;;;;;;;22.48;51.51;101848.13;7285006;19;154175;-58
2022/06/04 09:03:23;;;;;;;;;;;;;;;22.44;50.97;101845.06;7294172;19;151520;-57
2022/06/04 09:05:53;;;;;;;;;;;;;;;22.41;49.30;101847.63;7285543;19;154245;-58
2022/06/04 09:08:45;;;;;;;;;;;;;;;22.37;48.87;101846.56;7286145;19;152440;-57
2022/06/04 09:11:16;;;;;;;;;;;;;;;22.32;48.45;101861.53;7286424;19;153315;-58
2022/06/04 09:13:51;;;;;;;;;;;;;;;22.27;48.28;101858.78;7282806;19;154402;-58
2022/06/04 09:16:28;;;;;;;;;;;;;;;22.25;47.98;101854.59;7284415;19;152013;-58
2022/06/04 09:19:02;;;;;;;;;;;;;;;22.22;48.24;101861.66;7285364;19;154328;-59
2022/06/04 09:21:35;;;;;;;;;;;;;;;22.23;48.54;101868.13;7283526;19;152235;-58
2022/06/04 09:24:02;;;;;;;;;;;;;;;22.23;48.60;101873.75;7291684;19;152024;-58
2022/06/04 09:26:32;;;;;;;;;;;;;;;22.24;48.72;101876.28;7282175;19;154318;-58
2022/06/04 09:29:13;;;;;;;;;;;;;;;22.25;49.00;101883.59;7285298;19;151945;-59
2022/06/04 09:31:58;;;;;;;;;;;;;;;22.27;49.38;101886.94;7283659;19;153112;-59
2022/06/04 09:34:31;;;;;;;;;;;;;;;22.25;49.22;101875.16;7283789;19;154301;-59
2022/06/04 09:36:59;;;;;;;;;;;;;;;22.26;49.55;101873.16;7284407;19;151857;-57
2022/06/04 09:39:27;;;;;;;;;;;;;;;22.25;49.88;101874.31;7283786;19;154117;-61
2022/06/04 09:41:56;;;;;;;;;;;;;;;22.29;49.71;101872.56;7284516;19;154181;-58
2022/06/04 09:44:24;;;;;;;;;;;;;;;22.27;49.90;101864.41;7281065;19;152289;-59
2022/06/04 09:46:59;;;;;;;;;;;;;;;22.29;50.16;101872.56;7292084;19;153885;-59
2022/06/04 09:49:31;;;;;;;;;;;;;;;22.26;50.36;101864.72;7284981;19;152017;-57
2022/06/04 09:51:59;;;;;;;;;;;;;;;22.26;50.40;101870.34;7286618;19;152824;-59
2022/06/04 09:54:29;;;;;;;;;;;;;;;22.25;50.04;101877.97;7283864;19;154343;-59
2022/06/04 09:56:57;;;;;;;;;;;;;;;22.24;50.50;101870.63;7282489;19;151826;-59
2022/06/04 09:59:28;;;;;;;;;;;;;;;22.25;50.52;101868.66;7275841;19;154211;-59
2022/06/04 10:01:57;;;;;;;;;;;;;;;22.25;50.30;101877.13;7283598;19;153872;-59
2022/06/04 10:04:35;;;;;;;;;;;;;;;22.24;50.63;101875.44;7281023;19;151934;-58
2022/06/04 10:07:10;;;;;;;;;;;;;;;22.23;50.33;101885.84;7285117;19;153365;-58
2022/06/04 10:09:55;;;;;;;;;;;;;;;22.23;50.79;101876.56;7289564;19;153955;-59
2022/06/04 10:15:23;;;;;;;;;;;;;;;22.24;50.86;101879.09;7281835;19;154306;-59
2022/06/04 10:18:12;;;;;;;;;;;;;;;22.24;50.63;101875.44;7284683;19;154086;-58
2022/06/04 10:20:39;;;;;;;;;;;;;;;22.26;50.68;101871.16;7283124;19;152841;-58
2022/06/04 10:23:12;;;;;;;;;;;;;;;22.32;50.45;101869.16;7281178;19;153981;-57
2022/06/04 10:25:58;;;;;;;;;;;;;;;22.36;50.19;101881.47;7284513;19;152035;-59
2022/06/04 10:28:30;;;;;;;;;;;;;;;22.37;50.18;101869.94;7283888;19;153486;-59
2022/06/04 10:31:16;;;;;;;;;;;;;;;22.38;50.04;101868.81;7282293;19;155109;-58
2022/06/04 10:33:52;;;;;;;;;;;;;;;22.35;49.88;101869.38;7288997;19;152114;-58
2022/06/04 10:36:29;;;;;;;;;;;;;;;22.32;49.89;101858.72;7279798;19;153939;-60
2022/06/04 10:39:08;;;;;;;;;;;;;;;22.31;49.77;101861.81;7283665;19;152205;-58
2022/06/04 10:41:44;;;;;;;;;;;;;;;22.33;50.02;101857.59;7283234;19;153371;-58
2022/06/04 10:44:29;;;;;;;;;;;;;;;22.35;49.90;101860.13;7275012;19;154423;-59
2022/06/04 10:46:56;;;;;;;;;;;;;;;22.37;49.74;101850.22;7279859;19;151923;-59
2022/06/04 10:49:29;;;;;;;;;;;;;;;22.40;49.77;101852.44;7283638;19;156068;-58
2022/06/04 10:51:59;;;;;;;;;;;;;;;22.40;49.72;101851.59;7283463;19;153458;-59
2022/06/04 10:54:37;;;;;;;;;;;;;;;22.40;49.74;101835.53;7282678;19;151756;-57
2022/06/04 10:57:23;;;;;;;;;;;;;;;22.41;50.03;101845.66;7289707;19;154032;-58
2022/06/04 10:59:57;;;;;;;;;;;;;;;22.40;50.26;101835.53;7282814;19;151948;-59
2022/06/04 11:02:27;;;;;;;;;;;;;;;22.37;50.20;101838.97;7281394;19;153616;-58
2022/06/04 11:04:54;;;;;;;;;;;;;;;22.35;50.33;101827.13;7279769;19;154517;-58
2022/06/04 11:07:33;;;;;;;;;;;;;;;22.34;49.02;101833.94;7282697;19;151776;-57
2022/06/04 11:10:02;;;;;;;;;;;;;;;22.30;46.55;101829.19;7282004;19;152367;-58
2022/06/04 11:12:51;;;;;;;;;;;;;;;22.27;46.20;101836.25;7279375;19;153630;-59
2022/06/04 11:15:29;;;;;;;;;;;;;;;22.25;46.27;101832.06;7282405;19;151644;-58
2022/06/04 11:18:11;;;;;;;;;;;;;;;22.23;46.07;101832.34;7282573;19;153486;-59
2022/06/04 11:20:53;;;;;;;;;;;;;;;22.28;45.68;101832.31;7288770;19;154453;-60
2022/06/04 11:23:45;;;;;;;;;;;;;;;22.28;46.97;101829.50;7281689;19;153261;-58
2022/06/04 11:26:30;;;;;;;;;;;;;;;22.30;46.10;101830.03;7279849;19;153755;-58
2022/06/04 11:28:59;;;;;;;;;;;;;;;22.30;45.49;101835.69;7282569;19;151611;-60
2022/06/04 11:31:26;;;;;;;;;;;;;;;22.28;45.46;101821.03;7282720;19;153345;-58
2022/06/04 11:34:01;;;;;;;;;;;;;;;22.21;46.10;101833.81;7279776;19;153935;-58
2022/06/04 11:36:34;;;;;;;;;;;;;;;22.21;45.54;101820.56;7277214;19;151718;-58
2022/06/04 11:39:04;;;;;;;;;;;;;;;22.23;45.38;101835.19;7281241;19;152529;-59
2022/06/04 11:41:33;;;;;;;;;;;;;;;22.24;46.15;101833.19;7286544;19;152488;-57
2022/06/04 11:44:18;;;;;;;;;;;;;;;22.23;46.37;101823.06;7282047;19;153332;-59
2022/06/04 11:47:00;;;;;;;;;;;;;;;22.21;46.97;101825.38;7274267;19;153972;-60
2022/06/04 11:49:31;;;;;;;;;;;;;;;22.23;46.93;101826.72;7281041;19;152853;-57
2022/06/04 11:51:58;;;;;;;;;;;;;;;22.20;47.28;101832.13;7280886;19;153353;-60
2022/06/04 11:54:36;;;;;;;;;;;;;;;22.17;47.54;101819.47;7281202;19;155481;-59
2022/06/04 11:57:14;;;;;;;;;;;;;;;22.18;47.30;101832.41;7281624;19;151861;-59
2022/06/04 11:59:47;;;;;;;;;;;;;;;22.20;47.70;101830.16;7287379;19;154006;-58
2022/06/04 12:02:25;;;;;;;;;;;;;;;22.19;47.47;101820.03;7287667;19;153310;-58
2022/06/04 12:05:12;;;;;;;;;;;;;;;22.16;47.59;101820.63;7293609;19;152083;-58
2022/06/04 12:07:47;;;;;;;;;;;;;;;22.15;47.70;101807.69;7284659;19;153251;-58
2022/06/04 12:10:16;;;;;;;;;;;;;;;22.15;48.02;101819.78;7287469;19;151980;-58
2022/06/04 12:13:04;;;;;;;;;;;;;;;22.13;47.86;101819.22;7287369;19;152766;-59
2022/06/04 12:15:32;;;;;;;;;;;;;;;22.17;47.64;101808.22;7286127;19;153975;-59
2022/06/04 12:18:02;;;;;;;;;;;;;;;22.25;47.56;101803.91;7285315;19;152099;-58
2022/06/04 12:26:32;;;;;;;;;;;;;;;22.35;47.68;101795.34;7288151;19;152253;-58
2022/06/04 12:28:59;;;;;;;;;;;;;;;22.36;47.29;101780.97;7293291;19;153672;-57
2022/06/04 12:31:34;;;;;;;;;;;;;;;22.41;47.47;101797.78;7285667;19;152338;-59
2022/06/04 12:34:02;;;;;;;;;;;;;;;22.37;47.51;101795.88;7286770;19;154028;-58
2022/06/04 12:36:32;;;;;;;;;;;;;;;22.35;47.63;101803.81;7284675;19;153378;-58
2022/06/04 12:39:02;;;;;;;;;;;;;;;22.35;48.05;101796.16;7286820;19;152584;-59
2022/06/04 12:41:42;;;;;;;;;;;;;;;22.35;48.15;101799.00;7275536;19;152360;-58
2022/06/04 12:44:20;;;;;;;;;;;;;;;22.34;47.71;101791.69;7285588;19;153212;-59
2022/06/04 12:46:49;;;;;;;;;;;;;;;22.33;48.08;101790.00;7282243;19;152539;-58
2022/06/04 12:49:21;;;;;;;;;;;;;;;22.33;47.79;101784.38;7283674;19;152739;-58
2022/06/04 12:51:55;;;;;;;;;;;;;;;22.34;47.85;101788.88;7293648;19;153584;-59
2022/06/04 12:54:39;;;;;;;;;;;;;;;22.35;47.52;101786.91;7284310;19;152630;-58
2022/06/04 12:57:11;;;;;;;;;;;;;;;22.33;47.84;101778.75;7282196;19;153301;-57
2022/06/04 12:59:42;;;;;;;;;;;;;;;22.34;47.96;101772.00;7286039;19;151582;-59
2022/06/04 13:02:28;;;;;;;;;;;;;;;22.34;47.83;101782.41;7286750;19;153089;-58
2022/06/04 13:05:08;;;;;;;;;;;;;;;22.35;47.74;101787.72;7282492;19;154406;-59
2022/06/04 13:07:39;;;;;;;;;;;;;;;22.34;47.69;101769.19;7284048;19;152313;-58